sensor_id;sensor_type;location;lat;lon;timestamp;temperature;humidity
66013;DHT22;52783;50.502;8.190;2023-10-13T00:01:22;15.90;99.90
66013;DHT22;52783;50.502;8.190;2023-10-13T00:03:49;15.90;99.90
66013;DHT22;52783;50.502;8.190;2023-10-13T00:06:15;15.90;99.90
66013;DHT22;52783;50.502;8.190;2023-10-13T00:08:41;15.80;99.90
66013;DHT22;52783;50.502;8.190;2023-10-13T00:11:11;15.80;99.90
66013;DHT22;52783;50.502;8.190;2023-10-13T00:13:36;15.80;99.90
66013;DHT22;52783;50.502;8.190;2023-10-13T00:16:08;15.80;99.90
66013;DHT22;52783;50.502;8.190;2023-10-13T00:18:43;15.80;99.90
66013;DHT22;52783;50.502;8.190;2023-10-13T00:21:10;15.80;99.90
66013;DHT22;52783;50.502;8.190;2023-10-13T00:23:42;15.80;99.90
66013;DHT22;52783;50.502;8.190;2023-10-13T00:26:28;15.80;99.90
66013;DHT22;52783;50.502;8.190;2023-10-13T00:28:55;15.80;99.90
66013;DHT22;52783;50.502;8.190;2023-10-13T00:31:34;15.80;99.90
66013;DHT22;52783;50.502;8.190;2023-10-13T00:34:02;15.80;99.90
66013;DHT22;52783;50.502;8.190;2023-10-13T00:36:44;15.80;99.90
66013;DHT22;52783;50.502;8.190;2023-10-13T00:39:14;15.80;99.90
66013;DHT22;52783;50.502;8.190;2023-10-13T00:41:42;15.80;99.90
66013;DHT22;52783;50.502;8.190;2023-10-13T00:44:18;15.80;99.90
66013;DHT22;52783;50.502;8.190;2023-10-13T00:46:53;15.80;99.90
66013;DHT22;52783;50.502;8.190;2023-10-13T00:49:22;15.80;99.90
66013;DHT22;52783;50.502;8.190;2023-10-13T00:51:49;15.70;99.90
66013;DHT22;52783;50.502;8.190;2023-10-13T00:54:17;15.60;99.90
66013;DHT22;52783;50.502;8.190;2023-10-13T00:56:46;15.70;99.90
66013;DHT22;52783;50.502;8.190;2023-10-13T00:59:15;15.70;99.90
66013;DHT22;52783;50.502;8.190;2023-10-13T01:01:41;15.70;99.90
66013;DHT22;52783;50.502;8.190;2023-10-13T01:04:11;15.70;99.90
66013;DHT22;52783;50.502;8.190;2023-10-13T01:06:40;15.70;99.90
66013;DHT22;52783;50.502;8.190;2023-10-13T01:09:10;15.70;99.90
66013;DHT22;52783;50.502;8.190;2023-10-13T01:11:47;15.70;99.90
66013;DHT22;52783;50.502;8.190;2023-10-13T01:14:20;15.70;99.90
66013;DHT22;52783;50.502;8.190;2023-10-13T01:16:47;15.70;99.90
66013;DHT22;52783;50.502;8.190;2023-10-13T01:19:18;15.70;99.90
66013;DHT22;52783;50.502;8.190;2023-10-13T01:21:45;15.70;99.90
66013;DHT22;52783;50.502;8.190;2023-10-13T01:24:12;15.80;99.90
66013;DHT22;52783;50.502;8.190;2023-10-13T01:26:48;15.70;99.90
66013;DHT22;52783;50.502;8.190;2023-10-13T01:29:16;15.70;99.90
66013;DHT22;52783;50.502;8.190;2023-10-13T01:31:45;15.70;99.90
66013;DHT22;52783;50.502;8.190;2023-10-13T01:34:15;15.70;99.90
66013;DHT22;52783;50.502;8.190;2023-10-13T01:36:51;15.80;99.90
66013;DHT22;52783;50.502;8.190;2023-10-13T01:39:17;15.80;99.90
66013;DHT22;52783;50.502;8.190;2023-10-13T01:41:43;15.80;99.90
66013;DHT22;52783;50.502;8.190;2023-10-13T01:44:09;15.80;99.90
66013;DHT22;52783;50.502;8.190;2023-10-13T01:46:40;15.90;99.90
66013;DHT22;52783;50.502;8.190;2023-10-13T01:49:07;15.80;99.90
66013;DHT22;52783;50.502;8.190;2023-10-13T01:51:33;15.90;99.90
66013;DHT22;52783;50.502;8.190;2023-10-13T01:53:59;15.90;99.90
66013;DHT22;52783;50.502;8.190;2023-10-13T01:56:28;15.90;99.90
66013;DHT22;52783;50.502;8.190;2023-10-13T01:58:55;15.90;99.90
66013;DHT22;52783;50.502;8.190;2023-10-13T02:01:21;15.90;99.90
66013;DHT22;52783;50.502;8.190;2023-10-13T02:03:54;15.90;99.90
66013;DHT22;52783;50.502;8.190;2023-10-13T02:06:32;16.00;99.90
66013;DHT22;52783;50.502;8.190;2023-10-13T02:09:02;16.00;99.90
66013;DHT22;52783;50.502;8.190;2023-10-13T02:11:37;16.10;99.90
66013;DHT22;52783;50.502;8.190;2023-10-13T02:14:03;16.10;99.90
66013;DHT22;52783;50.502;8.190;2023-10-13T02:16:29;16.10;99.90
66013;DHT22;52783;50.502;8.190;2023-10-13T02:18:56;16.20;99.90
66013;DHT22;52783;50.502;8.190;2023-10-13T02:21:23;16.20;99.90
66013;DHT22;52783;50.502;8.190;2023-10-13T02:23:57;16.20;99.90
66013;DHT22;52783;50.502;8.190;2023-10-13T02:26:26;16.10;99.90
66013;DHT22;52783;50.502;8.190;2023-10-13T02:29:04;16.10;99.90
66013;DHT22;52783;50.502;8.190;2023-10-13T02:31:35;16.10;99.90
66013;DHT22;52783;50.502;8.190;2023-10-13T02:34:00;16.20;99.90
66013;DHT22;52783;50.502;8.190;2023-10-13T02:36:30;16.20;99.90
66013;DHT22;52783;50.502;8.190;2023-10-13T02:39:05;16.20;99.90
66013;DHT22;52783;50.502;8.190;2023-10-13T02:41:34;16.20;99.90
66013;DHT22;52783;50.502;8.190;2023-10-13T02:44:04;16.20;99.90
66013;DHT22;52783;50.502;8.190;2023-10-13T02:46:41;16.20;99.90
66013;DHT22;52783;50.502;8.190;2023-10-13T02:49:08;16.30;99.90
66013;DHT22;52783;50.502;8.190;2023-10-13T02:51:40;16.20;99.90
66013;DHT22;52783;50.502;8.190;2023-10-13T02:54:08;16.30;99.90
66013;DHT22;52783;50.502;8.190;2023-10-13T02:56:38;16.30;99.90
66013;DHT22;52783;50.502;8.190;2023-10-13T02:59:13;16.30;99.90
66013;DHT22;52783;50.502;8.190;2023-10-13T03:01:39;16.30;99.90
66013;DHT22;52783;50.502;8.190;2023-10-13T03:04:05;16.40;99.90
66013;DHT22;52783;50.502;8.190;2023-10-13T03:06:38;16.30;99.90
66013;DHT22;52783;50.502;8.190;2023-10-13T03:09:09;16.40;99.90
66013;DHT22;52783;50.502;8.190;2023-10-13T03:11:45;16.40;99.90
66013;DHT22;52783;50.502;8.190;2023-10-13T03:14:18;16.30;99.90
66013;DHT22;52783;50.502;8.190;2023-10-13T03:16:54;16.30;99.90
66013;DHT22;52783;50.502;8.190;2023-10-13T03:19:21;16.30;99.90
66013;DHT22;52783;50.502;8.190;2023-10-13T03:21:47;16.30;99.90
66013;DHT22;52783;50.502;8.190;2023-10-13T03:24:22;16.30;99.90
66013;DHT22;52783;50.502;8.190;2023-10-13T03:27:04;16.30;99.90
66013;DHT22;52783;50.502;8.190;2023-10-13T03:29:39;16.20;99.90
66013;DHT22;52783;50.502;8.190;2023-10-13T03:32:16;16.30;99.90
66013;DHT22;52783;50.502;8.190;2023-10-13T03:34:42;16.30;99.90
66013;DHT22;52783;50.502;8.190;2023-10-13T03:37:17;16.20;99.90
66013;DHT22;52783;50.502;8.190;2023-10-13T03:39:45;16.20;99.90
66013;DHT22;52783;50.502;8.190;2023-10-13T03:42:11;16.20;99.90
66013;DHT22;52783;50.502;8.190;2023-10-13T03:44:47;16.20;99.90
66013;DHT22;52783;50.502;8.190;2023-10-13T03:47:13;16.20;99.90
66013;DHT22;52783;50.502;8.190;2023-10-13T03:49:54;16.20;99.90
66013;DHT22;52783;50.502;8.190;2023-10-13T03:52:40;16.20;99.90
66013;DHT22;52783;50.502;8.190;2023-10-13T03:55:06;16.20;99.90
66013;DHT22;52783;50.502;8.190;2023-10-13T03:57:32;16.20;99.90
66013;DHT22;52783;50.502;8.190;2023-10-13T04:00:04;16.20;99.90
66013;DHT22;52783;50.502;8.190;2023-10-13T04:02:35;16.20;99.90
66013;DHT22;52783;50.502;8.190;2023-10-13T04:05:02;16.20;99.90
66013;DHT22;52783;50.502;8.190;2023-10-13T04:07:34;16.20;99.90
66013;DHT22;52783;50.502;8.190;2023-10-13T04:10:25;16.20;99.90
66013;DHT22;52783;50.502;8.190;2023-10-13T04:13:29;16.20;99.90
66013;DHT22;52783;50.502;8.190;2023-10-13T04:16:13;16.20;99.90
66013;DHT22;52783;50.502;8.190;2023-10-13T04:18:51;16.20;99.90
66013;DHT22;52783;50.502;8.190;2023-10-13T04:21:23;16.20;99.90
66013;DHT22;52783;50.502;8.190;2023-10-13T04:24:12;16.20;99.90
66013;DHT22;52783;50.502;8.190;2023-10-13T04:26:44;16.20;99.90
66013;DHT22;52783;50.502;8.190;2023-10-13T04:29:29;16.20;99.90
66013;DHT22;52783;50.502;8.190;2023-10-13T04:32:15;16.20;99.90
66013;DHT22;52783;50.502;8.190;2023-10-13T04:34:43;16.20;99.90
66013;DHT22;52783;50.502;8.190;2023-10-13T04:37:12;16.30;99.90
66013;DHT22;52783;50.502;8.190;2023-10-13T04:40:07;16.20;99.90
66013;DHT22;52783;50.502;8.190;2023-10-13T04:42:36;16.20;99.90
66013;DHT22;52783;50.502;8.190;2023-10-13T04:45:06;16.30;99.90
66013;DHT22;52783;50.502;8.190;2023-10-13T04:47:52;16.30;99.90
66013;DHT22;52783;50.502;8.190;2023-10-13T04:50:22;16.30;99.90
66013;DHT22;52783;50.502;8.190;2023-10-13T04:52:52;16.40;99.90
66013;DHT22;52783;50.502;8.190;2023-10-13T04:55:27;16.40;99.90
66013;DHT22;52783;50.502;8.190;2023-10-13T04:58:11;16.50;99.90
66013;DHT22;52783;50.502;8.190;2023-10-13T05:00:53;16.50;99.90
66013;DHT22;52783;50.502;8.190;2023-10-13T05:03:41;16.50;99.90
66013;DHT22;52783;50.502;8.190;2023-10-13T05:06:26;16.50;99.90
66013;DHT22;52783;50.502;8.190;2023-10-13T05:09:14;16.50;99.90
66013;DHT22;52783;50.502;8.190;2023-10-13T05:11:58;16.50;99.90
66013;DHT22;52783;50.502;8.190;2023-10-13T05:14:43;16.50;99.90
66013;DHT22;52783;50.502;8.190;2023-10-13T05:17:27;16.50;99.90
66013;DHT22;52783;50.502;8.190;2023-10-13T05:20:11;16.50;99.90
66013;DHT22;52783;50.502;8.190;2023-10-13T05:22:55;16.50;99.90
66013;DHT22;52783;50.502;8.190;2023-10-13T05:25:44;16.50;99.90
66013;DHT22;52783;50.502;8.190;2023-10-13T05:28:28;16.50;99.90
66013;DHT22;52783;50.502;8.190;2023-10-13T05:31:12;16.50;99.90
66013;DHT22;52783;50.502;8.190;2023-10-13T05:33:57;16.50;99.90
66013;DHT22;52783;50.502;8.190;2023-10-13T05:36:41;16.50;99.90
66013;DHT22;52783;50.502;8.190;2023-10-13T05:39:25;16.60;99.90
66013;DHT22;52783;50.502;8.190;2023-10-13T05:42:09;16.60;99.90
66013;DHT22;52783;50.502;8.190;2023-10-13T05:44:54;16.60;99.90
66013;DHT22;52783;50.502;8.190;2023-10-13T05:47:42;16.60;99.90
66013;DHT22;52783;50.502;8.190;2023-10-13T05:50:09;16.60;99.90
66013;DHT22;52783;50.502;8.190;2023-10-13T05:52:43;16.60;99.90
66013;DHT22;52783;50.502;8.190;2023-10-13T05:55:29;16.60;99.90
66013;DHT22;52783;50.502;8.190;2023-10-13T05:58:14;16.60;99.90
66013;DHT22;52783;50.502;8.190;2023-10-13T06:00:58;16.60;99.90
66013;DHT22;52783;50.502;8.190;2023-10-13T06:03:42;16.60;99.90
66013;DHT22;52783;50.502;8.190;2023-10-13T06:06:27;16.60;99.90
66013;DHT22;52783;50.502;8.190;2023-10-13T06:09:11;16.60;99.90
66013;DHT22;52783;50.502;8.190;2023-10-13T06:11:55;16.60;99.90
66013;DHT22;52783;50.502;8.190;2023-10-13T06:14:39;16.70;99.90
66013;DHT22;52783;50.502;8.190;2023-10-13T06:17:24;16.70;99.90
66013;DHT22;52783;50.502;8.190;2023-10-13T06:20:08;16.70;99.90
66013;DHT22;52783;50.502;8.190;2023-10-13T06:22:52;16.70;99.90
66013;DHT22;52783;50.502;8.190;2023-10-13T06:25:37;16.80;99.90
66013;DHT22;52783;50.502;8.190;2023-10-13T06:28:21;16.80;99.90
66013;DHT22;52783;50.502;8.190;2023-10-13T06:31:05;16.80;99.90
66013;DHT22;52783;50.502;8.190;2023-10-13T06:33:32;16.80;99.90
66013;DHT22;52783;50.502;8.190;2023-10-13T06:36:01;16.90;99.90
66013;DHT22;52783;50.502;8.190;2023-10-13T06:38:26;16.90;99.90
66013;DHT22;52783;50.502;8.190;2023-10-13T06:40:57;16.90;99.90
66013;DHT22;52783;50.502;8.190;2023-10-13T06:43:23;16.80;99.90
66013;DHT22;52783;50.502;8.190;2023-10-13T06:45:49;16.80;99.90
66013;DHT22;52783;50.502;8.190;2023-10-13T06:48:28;16.80;99.90
66013;DHT22;52783;50.502;8.190;2023-10-13T06:51:03;16.90;99.90
66013;DHT22;52783;50.502;8.190;2023-10-13T06:53:32;17.00;99.90
66013;DHT22;52783;50.502;8.190;2023-10-13T06:56:06;17.00;99.90
66013;DHT22;52783;50.502;8.190;2023-10-13T06:58:31;17.00;99.90
66013;DHT22;52783;50.502;8.190;2023-10-13T07:00:58;17.10;99.90
66013;DHT22;52783;50.502;8.190;2023-10-13T07:03:24;17.10;99.90
66013;DHT22;52783;50.502;8.190;2023-10-13T07:05:51;17.20;99.90
66013;DHT22;52783;50.502;8.190;2023-10-13T07:08:17;17.20;99.90
66013;DHT22;52783;50.502;8.190;2023-10-13T07:13:17;17.20;99.90
66013;DHT22;52783;50.502;8.190;2023-10-13T07:15:45;17.30;99.90
66013;DHT22;52783;50.502;8.190;2023-10-13T07:18:17;17.40;99.90
66013;DHT22;52783;50.502;8.190;2023-10-13T07:20:48;17.40;99.90
66013;DHT22;52783;50.502;8.190;2023-10-13T07:23:14;17.40;99.90
66013;DHT22;52783;50.502;8.190;2023-10-13T07:25:54;17.50;99.90
66013;DHT22;52783;50.502;8.190;2023-10-13T07:28:21;17.50;99.90
66013;DHT22;52783;50.502;8.190;2023-10-13T07:30:47;17.50;99.90
66013;DHT22;52783;50.502;8.190;2023-10-13T07:33:16;17.60;99.90
66013;DHT22;52783;50.502;8.190;2023-10-13T07:35:45;17.60;99.90
66013;DHT22;52783;50.502;8.190;2023-10-13T07:38:16;17.60;99.90
66013;DHT22;52783;50.502;8.190;2023-10-13T07:40:42;17.60;99.90
66013;DHT22;52783;50.502;8.190;2023-10-13T07:43:16;17.60;99.90
66013;DHT22;52783;50.502;8.190;2023-10-13T07:45:47;17.50;99.90
66013;DHT22;52783;50.502;8.190;2023-10-13T07:48:23;17.40;99.90
66013;DHT22;52783;50.502;8.190;2023-10-13T07:51:08;17.50;99.90
66013;DHT22;52783;50.502;8.190;2023-10-13T07:53:36;17.60;99.90
66013;DHT22;52783;50.502;8.190;2023-10-13T07:56:06;17.60;99.90
66013;DHT22;52783;50.502;8.190;2023-10-13T07:58:34;17.60;99.90
66013;DHT22;52783;50.502;8.190;2023-10-13T08:01:01;17.70;99.90
66013;DHT22;52783;50.502;8.190;2023-10-13T08:03:35;17.80;99.90
66013;DHT22;52783;50.502;8.190;2023-10-13T08:06:09;17.90;99.90
66013;DHT22;52783;50.502;8.190;2023-10-13T08:08:37;18.00;99.90
66013;DHT22;52783;50.502;8.190;2023-10-13T08:11:07;18.10;99.90
66013;DHT22;52783;50.502;8.190;2023-10-13T08:13:56;18.10;99.90
66013;DHT22;52783;50.502;8.190;2023-10-13T08:16:25;18.20;99.90
66013;DHT22;52783;50.502;8.190;2023-10-13T08:19:05;18.30;99.90
66013;DHT22;52783;50.502;8.190;2023-10-13T08:21:33;18.40;99.90
66013;DHT22;52783;50.502;8.190;2023-10-13T08:23:59;18.50;99.90
66013;DHT22;52783;50.502;8.190;2023-10-13T08:26:27;18.60;99.90
66013;DHT22;52783;50.502;8.190;2023-10-13T08:29:16;18.80;99.90
66013;DHT22;52783;50.502;8.190;2023-10-13T08:31:49;18.90;99.90
66013;DHT22;52783;50.502;8.190;2023-10-13T08:34:35;19.00;99.90
66013;DHT22;52783;50.502;8.190;2023-10-13T08:37:05;19.00;99.90
66013;DHT22;52783;50.502;8.190;2023-10-13T08:39:57;19.10;99.90
66013;DHT22;52783;50.502;8.190;2023-10-13T08:42:31;19.20;99.90
66013;DHT22;52783;50.502;8.190;2023-10-13T08:45:16;19.20;99.90
66013;DHT22;52783;50.502;8.190;2023-10-13T08:47:52;19.20;99.90
66013;DHT22;52783;50.502;8.190;2023-10-13T08:50:35;19.10;99.90
66013;DHT22;52783;50.502;8.190;2023-10-13T08:53:25;19.20;99.90
66013;DHT22;52783;50.502;8.190;2023-10-13T08:58:35;19.20;99.90
66013;DHT22;52783;50.502;8.190;2023-10-13T09:01:25;19.60;99.90
66013;DHT22;52783;50.502;8.190;2023-10-13T09:04:08;19.50;99.90
66013;DHT22;52783;50.502;8.190;2023-10-13T09:06:47;19.60;99.90
66013;DHT22;52783;50.502;8.190;2023-10-13T09:09:13;20.10;99.90
66013;DHT22;52783;50.502;8.190;2023-10-13T09:11:58;20.20;99.90
66013;DHT22;52783;50.502;8.190;2023-10-13T09:14:40;20.30;99.90
66013;DHT22;52783;50.502;8.190;2023-10-13T09:17:23;20.10;99.90
66013;DHT22;52783;50.502;8.190;2023-10-13T09:20:05;20.00;99.90
66013;DHT22;52783;50.502;8.190;2023-10-13T09:22:54;19.90;99.90
66013;DHT22;52783;50.502;8.190;2023-10-13T09:25:33;20.00;99.90
66013;DHT22;52783;50.502;8.190;2023-10-13T09:30:46;20.30;99.90
66013;DHT22;52783;50.502;8.190;2023-10-13T09:33:12;20.50;99.90
66013;DHT22;52783;50.502;8.190;2023-10-13T09:35:54;20.70;99.90
66013;DHT22;52783;50.502;8.190;2023-10-13T09:38:20;20.70;99.90
66013;DHT22;52783;50.502;8.190;2023-10-13T09:40:49;20.90;99.90
66013;DHT22;52783;50.502;8.190;2023-10-13T09:43:27;20.90;99.90
66013;DHT22;52783;50.502;8.190;2023-10-13T09:46:00;21.00;99.90
66013;DHT22;52783;50.502;8.190;2023-10-13T09:48:38;21.00;99.90
66013;DHT22;52783;50.502;8.190;2023-10-13T09:51:18;21.00;99.90
66013;DHT22;52783;50.502;8.190;2023-10-13T09:53:56;20.80;99.90
66013;DHT22;52783;50.502;8.190;2023-10-13T09:56:29;20.90;99.90
66013;DHT22;52783;50.502;8.190;2023-10-13T10:01:33;21.10;99.90
66013;DHT22;52783;50.502;8.190;2023-10-13T10:04:07;21.10;99.90
66013;DHT22;52783;50.502;8.190;2023-10-13T10:06:35;21.10;99.90
66013;DHT22;52783;50.502;8.190;2023-10-13T10:09:11;21.10;99.90
66013;DHT22;52783;50.502;8.190;2023-10-13T10:14:43;21.30;99.90
66013;DHT22;52783;50.502;8.190;2023-10-13T10:17:17;21.30;99.90
66013;DHT22;52783;50.502;8.190;2023-10-13T10:19:50;21.30;99.90
66013;DHT22;52783;50.502;8.190;2023-10-13T10:22:27;21.50;99.90
66013;DHT22;52783;50.502;8.190;2023-10-13T10:25:00;21.40;99.90
66013;DHT22;52783;50.502;8.190;2023-10-13T10:27:29;21.30;99.90
66013;DHT22;52783;50.502;8.190;2023-10-13T10:29:56;21.30;99.90
66013;DHT22;52783;50.502;8.190;2023-10-13T10:32:40;21.20;99.90
66013;DHT22;52783;50.502;8.190;2023-10-13T10:35:08;21.20;99.90
66013;DHT22;52783;50.502;8.190;2023-10-13T10:37:36;21.20;99.90
66013;DHT22;52783;50.502;8.190;2023-10-13T10:40:07;21.10;99.90
66013;DHT22;52783;50.502;8.190;2023-10-13T10:42:33;21.00;99.90
66013;DHT22;52783;50.502;8.190;2023-10-13T10:44:59;21.10;99.90
66013;DHT22;52783;50.502;8.190;2023-10-13T10:47:31;21.20;99.90
66013;DHT22;52783;50.502;8.190;2023-10-13T10:49:58;21.20;99.90
66013;DHT22;52783;50.502;8.190;2023-10-13T10:52:27;21.30;99.90
66013;DHT22;52783;50.502;8.190;2023-10-13T10:54:59;21.20;99.90
66013;DHT22;52783;50.502;8.190;2023-10-13T10:57:25;21.10;99.90
66013;DHT22;52783;50.502;8.190;2023-10-13T10:59:54;20.90;99.90
66013;DHT22;52783;50.502;8.190;2023-10-13T11:02:37;20.70;99.90
66013;DHT22;52783;50.502;8.190;2023-10-13T11:05:02;20.90;99.90
66013;DHT22;52783;50.502;8.190;2023-10-13T11:07:31;20.80;99.90
66013;DHT22;52783;50.502;8.190;2023-10-13T11:10:07;20.90;99.90
66013;DHT22;52783;50.502;8.190;2023-10-13T11:12:37;21.00;99.90
66013;DHT22;52783;50.502;8.190;2023-10-13T11:15:06;21.10;99.90
66013;DHT22;52783;50.502;8.190;2023-10-13T11:17:41;21.00;99.90
66013;DHT22;52783;50.502;8.190;2023-10-13T11:20:24;21.00;99.90
66013;DHT22;52783;50.502;8.190;2023-10-13T11:23:12;21.00;99.90
66013;DHT22;52783;50.502;8.190;2023-10-13T11:25:38;21.00;99.90
66013;DHT22;52783;50.502;8.190;2023-10-13T11:28:13;21.20;99.90
66013;DHT22;52783;50.502;8.190;2023-10-13T11:30:44;21.40;99.90
66013;DHT22;52783;50.502;8.190;2023-10-13T11:33:15;21.40;99.90
66013;DHT22;52783;50.502;8.190;2023-10-13T11:35:44;21.50;99.90
66013;DHT22;52783;50.502;8.190;2023-10-13T11:38:20;21.70;99.90
66013;DHT22;52783;50.502;8.190;2023-10-13T11:41:03;21.80;99.90
66013;DHT22;52783;50.502;8.190;2023-10-13T11:43:39;22.00;99.90
66013;DHT22;52783;50.502;8.190;2023-10-13T11:46:14;22.10;99.90
66013;DHT22;52783;50.502;8.190;2023-10-13T11:48:45;22.20;99.90
66013;DHT22;52783;50.502;8.190;2023-10-13T11:51:13;22.30;99.90
66013;DHT22;52783;50.502;8.190;2023-10-13T11:53:50;22.30;99.90
66013;DHT22;52783;50.502;8.190;2023-10-13T11:56:22;22.50;99.90
66013;DHT22;52783;50.502;8.190;2023-10-13T11:58:47;22.60;99.90
66013;DHT22;52783;50.502;8.190;2023-10-13T12:01:14;22.70;99.90
66013;DHT22;52783;50.502;8.190;2023-10-13T12:03:43;22.60;99.90
66013;DHT22;52783;50.502;8.190;2023-10-13T12:06:29;22.70;99.90
66013;DHT22;52783;50.502;8.190;2023-10-13T12:09:08;22.60;99.90
66013;DHT22;52783;50.502;8.190;2023-10-13T12:12:03;22.60;99.90
66013;DHT22;52783;50.502;8.190;2023-10-13T12:14:30;22.60;99.90
66013;DHT22;52783;50.502;8.190;2023-10-13T12:17:03;22.60;99.90
66013;DHT22;52783;50.502;8.190;2023-10-13T12:19:29;22.50;99.90
66013;DHT22;52783;50.502;8.190;2023-10-13T12:21:57;22.50;99.90
66013;DHT22;52783;50.502;8.190;2023-10-13T12:24:24;22.50;99.90
66013;DHT22;52783;50.502;8.190;2023-10-13T12:27:16;22.60;99.90
66013;DHT22;52783;50.502;8.190;2023-10-13T12:29:48;22.60;99.90
66013;DHT22;52783;50.502;8.190;2023-10-13T12:32:14;22.60;99.90
66013;DHT22;52783;50.502;8.190;2023-10-13T12:34:46;22.60;99.90
66013;DHT22;52783;50.502;8.190;2023-10-13T12:37:29;22.60;99.90
66013;DHT22;52783;50.502;8.190;2023-10-13T12:40:14;22.50;99.90
66013;DHT22;52783;50.502;8.190;2023-10-13T12:42:59;22.40;99.90
66013;DHT22;52783;50.502;8.190;2023-10-13T12:45:56;22.40;99.90
66013;DHT22;52783;50.502;8.190;2023-10-13T12:49:01;22.40;99.90
66013;DHT22;52783;50.502;8.190;2023-10-13T12:51:39;22.30;99.90
66013;DHT22;52783;50.502;8.190;2023-10-13T12:54:16;22.30;99.90
66013;DHT22;52783;50.502;8.190;2023-10-13T12:57:00;22.30;99.90
66013;DHT22;52783;50.502;8.190;2023-10-13T12:59:26;22.40;99.90
66013;DHT22;52783;50.502;8.190;2023-10-13T13:01:52;22.40;99.90
66013;DHT22;52783;50.502;8.190;2023-10-13T13:04:18;22.40;99.90
66013;DHT22;52783;50.502;8.190;2023-10-13T13:06:54;22.40;99.90
66013;DHT22;52783;50.502;8.190;2023-10-13T13:09:21;22.40;99.90
66013;DHT22;52783;50.502;8.190;2023-10-13T13:11:53;22.30;99.90
66013;DHT22;52783;50.502;8.190;2023-10-13T13:14:25;22.40;99.90
66013;DHT22;52783;50.502;8.190;2023-10-13T13:17:02;22.50;99.90
66013;DHT22;52783;50.502;8.190;2023-10-13T13:19:34;22.40;99.90
66013;DHT22;52783;50.502;8.190;2023-10-13T13:22:07;22.40;99.90
66013;DHT22;52783;50.502;8.190;2023-10-13T13:24:43;22.40;99.90
66013;DHT22;52783;50.502;8.190;2023-10-13T13:27:13;22.50;99.90
66013;DHT22;52783;50.502;8.190;2023-10-13T13:29:43;22.60;99.90
66013;DHT22;52783;50.502;8.190;2023-10-13T13:32:08;22.60;99.90
66013;DHT22;52783;50.502;8.190;2023-10-13T13:34:47;22.60;99.90
66013;DHT22;52783;50.502;8.190;2023-10-13T13:37:33;22.60;99.90
66013;DHT22;52783;50.502;8.190;2023-10-13T13:39:59;22.40;99.90
66013;DHT22;52783;50.502;8.190;2023-10-13T13:42:39;22.50;99.90
66013;DHT22;52783;50.502;8.190;2023-10-13T13:45:11;22.50;99.90
66013;DHT22;52783;50.502;8.190;2023-10-13T13:47:37;22.40;99.90
66013;DHT22;52783;50.502;8.190;2023-10-13T13:50:02;22.40;99.90
66013;DHT22;52783;50.502;8.190;2023-10-13T13:52:32;22.50;99.90
66013;DHT22;52783;50.502;8.190;2023-10-13T13:55:11;22.50;99.90
66013;DHT22;52783;50.502;8.190;2023-10-13T13:57:43;22.40;99.90
66013;DHT22;52783;50.502;8.190;2023-10-13T14:00:11;22.50;99.90
66013;DHT22;52783;50.502;8.190;2023-10-13T14:02:43;22.50;99.90
66013;DHT22;52783;50.502;8.190;2023-10-13T14:05:14;22.50;99.90
66013;DHT22;52783;50.502;8.190;2023-10-13T14:07:43;22.50;99.90
66013;DHT22;52783;50.502;8.190;2023-10-13T14:10:15;22.50;99.90
66013;DHT22;52783;50.502;8.190;2023-10-13T14:12:59;22.40;99.90
66013;DHT22;52783;50.502;8.190;2023-10-13T14:15:33;22.30;99.90
66013;DHT22;52783;50.502;8.190;2023-10-13T14:18:06;22.30;99.90
66013;DHT22;52783;50.502;8.190;2023-10-13T14:20:32;22.20;99.90
66013;DHT22;52783;50.502;8.190;2023-10-13T14:23:05;22.20;99.90
66013;DHT22;52783;50.502;8.190;2023-10-13T14:25:32;22.20;99.90
66013;DHT22;52783;50.502;8.190;2023-10-13T14:28:05;22.20;99.90
66013;DHT22;52783;50.502;8.190;2023-10-13T14:30:31;22.10;99.90
66013;DHT22;52783;50.502;8.190;2023-10-13T14:32:57;22.20;99.90
66013;DHT22;52783;50.502;8.190;2023-10-13T14:35:24;22.10;99.90
66013;DHT22;52783;50.502;8.190;2023-10-13T14:37:54;22.10;99.90
66013;DHT22;52783;50.502;8.190;2023-10-13T14:40:19;22.10;99.90
66013;DHT22;52783;50.502;8.190;2023-10-13T14:42:47;22.10;99.90
66013;DHT22;52783;50.502;8.190;2023-10-13T14:45:14;22.10;99.90
66013;DHT22;52783;50.502;8.190;2023-10-13T14:47:42;22.10;99.90
66013;DHT22;52783;50.502;8.190;2023-10-13T14:50:08;22.10;99.90
66013;DHT22;52783;50.502;8.190;2023-10-13T14:52:44;22.10;99.90
66013;DHT22;52783;50.502;8.190;2023-10-13T14:55:10;22.10;99.90
66013;DHT22;52783;50.502;8.190;2023-10-13T14:57:48;22.10;99.90
66013;DHT22;52783;50.502;8.190;2023-10-13T15:00:15;22.00;99.90
66013;DHT22;52783;50.502;8.190;2023-10-13T15:02:43;22.00;99.90
66013;DHT22;52783;50.502;8.190;2023-10-13T15:05:12;22.00;99.90
66013;DHT22;52783;50.502;8.190;2023-10-13T15:07:43;21.90;99.90
66013;DHT22;52783;50.502;8.190;2023-10-13T15:10:14;21.90;99.90
66013;DHT22;52783;50.502;8.190;2023-10-13T15:12:43;22.00;99.90
66013;DHT22;52783;50.502;8.190;2023-10-13T15:15:10;21.90;99.90
66013;DHT22;52783;50.502;8.190;2023-10-13T15:17:39;21.90;99.90
66013;DHT22;52783;50.502;8.190;2023-10-13T15:20:06;21.80;99.90
66013;DHT22;52783;50.502;8.190;2023-10-13T15:22:34;21.80;99.90
66013;DHT22;52783;50.502;8.190;2023-10-13T15:25:01;21.80;99.90
66013;DHT22;52783;50.502;8.190;2023-10-13T15:27:45;21.80;99.90
66013;DHT22;52783;50.502;8.190;2023-10-13T15:30:16;21.80;99.90
66013;DHT22;52783;50.502;8.190;2023-10-13T15:32:49;21.60;99.90
66013;DHT22;52783;50.502;8.190;2023-10-13T15:35:16;21.70;99.90
66013;DHT22;52783;50.502;8.190;2023-10-13T15:37:42;21.70;99.90
66013;DHT22;52783;50.502;8.190;2023-10-13T15:40:13;21.70;99.90
66013;DHT22;52783;50.502;8.190;2023-10-13T15:42:42;21.60;99.90
66013;DHT22;52783;50.502;8.190;2023-10-13T15:45:08;21.60;99.90
66013;DHT22;52783;50.502;8.190;2023-10-13T15:47:46;21.60;99.90
66013;DHT22;52783;50.502;8.190;2023-10-13T15:50:13;21.40;99.90
66013;DHT22;52783;50.502;8.190;2023-10-13T15:52:41;21.40;99.90
66013;DHT22;52783;50.502;8.190;2023-10-13T15:55:14;21.40;99.90
66013;DHT22;52783;50.502;8.190;2023-10-13T15:57:41;21.30;99.90
66013;DHT22;52783;50.502;8.190;2023-10-13T16:00:08;21.20;99.90
66013;DHT22;52783;50.502;8.190;2023-10-13T16:02:56;21.20;99.90
66013;DHT22;52783;50.502;8.190;2023-10-13T16:05:34;21.20;99.90
66013;DHT22;52783;50.502;8.190;2023-10-13T16:08:00;21.10;99.90
66013;DHT22;52783;50.502;8.190;2023-10-13T16:10:26;21.10;99.90
66013;DHT22;52783;50.502;8.190;2023-10-13T16:12:55;21.00;99.90
66013;DHT22;52783;50.502;8.190;2023-10-13T16:15:23;21.00;99.90
66013;DHT22;52783;50.502;8.190;2023-10-13T16:17:48;20.90;99.90
66013;DHT22;52783;50.502;8.190;2023-10-13T16:20:14;20.90;99.90
66013;DHT22;52783;50.502;8.190;2023-10-13T16:22:44;20.90;99.90